BOX588 VHHH-RKSI
Flight info
| Callsign | BOX588 |
|---|---|
| Flight time | N/A |
| Altitude | 33000 |
| Route | BEKOL A461 IDUMA W41 ISLOM G471 PLT A599 TUPGA W135 ADBAS V77 LURMA A599 PUD W11 PINOT W115 MATNU G455 SURAK A326 OMLIB W209 AGAVO Y644 GONAV |
| Aircraft | B77L/H-VGDW/C |
Departure
| Time | 2026-05-06 17:42 |
|---|---|
| Airport | Hong Kong International Airport (VHHH) |
Arrival
| Time | N/A |
|---|---|
| Airport | Incheon International Airport (RKSI) |
| Time | Latitude | Longitude | Altitude | Speed | Heading |
|---|---|---|---|---|---|
| 2026-05-06 17:28 | 22.29826 | 113.91983 | 40 ft | 0 kts | 161° |
| 2026-05-06 17:37 | 22.29846 | 113.91976 | 39 ft | 4 kts | 161° |
| 2026-05-06 17:37 | 22.29872 | 113.91966 | 40 ft | 4 kts | 160° |
| 2026-05-06 17:38 | 22.29898 | 113.91956 | 38 ft | 4 kts | 161° |
| 2026-05-06 17:38 | 22.29912 | 113.91953 | 41 ft | 2 kts | 230° |
| 2026-05-06 17:38 | 22.29918 | 113.91964 | 40 ft | 2 kts | 249° |
| 2026-05-06 17:38 | 22.29922 | 113.91975 | 39 ft | 2 kts | 251° |
| 2026-05-06 17:39 | 22.29925 | 113.91984 | 38 ft | 0 kts | 251° |
| 2026-05-06 17:39 | 22.29899 | 113.91902 | 39 ft | 26 kts | 251° |
| 2026-05-06 17:40 | 22.29948 | 113.91735 | 41 ft | 27 kts | 338° |
| 2026-05-06 17:40 | 22.30020 | 113.91616 | 41 ft | 21 kts | 254° |
| 2026-05-06 17:40 | 22.29976 | 113.91457 | 41 ft | 23 kts | 254° |
| 2026-05-06 17:40 | 22.29922 | 113.91282 | 42 ft | 26 kts | 249° |
| 2026-05-06 17:41 | 22.29857 | 113.91094 | 39 ft | 30 kts | 251° |
| 2026-05-06 17:41 | 22.29776 | 113.90851 | 41 ft | 39 kts | 251° |
| 2026-05-06 17:41 | 22.29689 | 113.90580 | 41 ft | 19 kts | 252° |
| 2026-05-06 17:41 | 22.29764 | 113.90511 | 40 ft | 23 kts | 24° |
| 2026-05-06 17:42 | 22.29897 | 113.90652 | 40 ft | 34 kts | 66° |
| 2026-05-06 17:42 | 22.30066 | 113.91171 | 43 ft | 124 kts | 71° |
| 2026-05-06 17:42 | 22.30422 | 113.92376 | 309 ft | 196 kts | 73° |
| 2026-05-06 17:42 | 22.30881 | 113.93809 | 1317 ft | 207 kts | 72° |
| 2026-05-06 17:43 | 22.31379 | 113.95329 | 2212 ft | 227 kts | 73° |
| 2026-05-06 17:43 | 22.31935 | 113.97043 | 2685 ft | 253 kts | 73° |
| 2026-05-06 17:43 | 22.32532 | 113.98876 | 3482 ft | 264 kts | 72° |
| 2026-05-06 17:43 | 22.33145 | 114.00766 | 4414 ft | 270 kts | 72° |
| 2026-05-06 17:44 | 22.33754 | 114.02709 | 5277 ft | 274 kts | 76° |
| 2026-05-06 17:44 | 22.33880 | 114.04766 | 5956 ft | 281 kts | 104° |
| 2026-05-06 17:44 | 22.33142 | 114.06693 | 6785 ft | 278 kts | 119° |
| 2026-05-06 17:44 | 22.32568 | 114.08712 | 7348 ft | 291 kts | 91° |
| 2026-05-06 17:45 | 22.33087 | 114.10830 | 8149 ft | 298 kts | 58° |
| 2026-05-06 17:45 | 22.34566 | 114.12370 | 9009 ft | 299 kts | 25° |
| 2026-05-06 17:45 | 22.36567 | 114.12888 | 9835 ft | 299 kts | 354° |
| 2026-05-06 17:45 | 22.38546 | 114.12294 | 10480 ft | 298 kts | 332° |
| 2026-05-06 17:46 | 22.40578 | 114.11553 | 10643 ft | 325 kts | 353° |
| 2026-05-06 17:46 | 22.42910 | 114.11860 | 10836 ft | 351 kts | 14° |
| 2026-05-06 17:46 | 22.45339 | 114.12533 | 10968 ft | 371 kts | 8° |
| 2026-05-06 17:46 | 22.47962 | 114.12870 | 11393 ft | 386 kts | 2° |
| 2026-05-06 17:47 | 22.50673 | 114.13073 | 12067 ft | 393 kts | 1° |
| 2026-05-06 17:47 | 22.53371 | 114.13015 | 12644 ft | 398 kts | 350° |
| 2026-05-06 17:47 | 22.56118 | 114.12346 | 13449 ft | 399 kts | 340° |
| 2026-05-06 17:47 | 22.58674 | 114.11220 | 14186 ft | 397 kts | 331° |
| 2026-05-06 17:48 | 22.61171 | 114.09885 | 14830 ft | 403 kts | 331° |
| 2026-05-06 17:48 | 22.63707 | 114.08553 | 15527 ft | 408 kts | 332° |
| 2026-05-06 17:48 | 22.66277 | 114.07216 | 16233 ft | 411 kts | 332° |
| 2026-05-06 17:48 | 22.68826 | 114.05897 | 16924 ft | 415 kts | 332° |
| 2026-05-06 17:49 | 22.71481 | 114.04527 | 17596 ft | 419 kts | 332° |
| 2026-05-06 17:49 | 22.74133 | 114.03161 | 18246 ft | 424 kts | 332° |
| 2026-05-06 17:49 | 22.76813 | 114.01780 | 18814 ft | 427 kts | 332° |
| 2026-05-06 17:49 | 22.79470 | 114.00412 | 19378 ft | 430 kts | 332° |
| 2026-05-06 17:50 | 22.82211 | 113.98999 | 19972 ft | 433 kts | 332° |
| 2026-05-06 17:50 | 22.84946 | 113.97589 | 20547 ft | 436 kts | 332° |
| 2026-05-06 17:50 | 22.87746 | 113.96334 | 20969 ft | 442 kts | 340° |
| 2026-05-06 17:50 | 22.90763 | 113.95721 | 21403 ft | 452 kts | 353° |
| 2026-05-06 17:51 | 22.93927 | 113.95770 | 21957 ft | 458 kts | 4° |
| 2026-05-06 17:51 | 22.97109 | 113.96348 | 22445 ft | 461 kts | 7° |
| 2026-05-06 17:51 | 23.00246 | 113.96958 | 22884 ft | 466 kts | 7° |
| 2026-05-06 17:51 | 23.03454 | 113.97552 | 23387 ft | 469 kts | 7° |
| 2026-05-06 17:52 | 23.06672 | 113.98129 | 23856 ft | 471 kts | 6° |
| 2026-05-06 17:52 | 23.09950 | 113.98705 | 24316 ft | 472 kts | 6° |
| 2026-05-06 17:52 | 23.13159 | 113.99264 | 24774 ft | 474 kts | 6° |
| 2026-05-06 17:52 | 23.16424 | 113.99832 | 25209 ft | 475 kts | 6° |
| 2026-05-06 17:53 | 23.19698 | 114.00402 | 25637 ft | 478 kts | 6° |
| 2026-05-06 17:53 | 23.22981 | 114.00975 | 26061 ft | 480 kts | 6° |
| 2026-05-06 17:53 | 23.26275 | 114.01699 | 26462 ft | 485 kts | 13° |
| 2026-05-06 17:53 | 23.29448 | 114.02996 | 26849 ft | 492 kts | 22° |
| 2026-05-06 17:54 | 23.32456 | 114.04833 | 27237 ft | 498 kts | 31° |
| 2026-05-06 17:54 | 23.35219 | 114.07136 | 27650 ft | 503 kts | 37° |
| 2026-05-06 17:54 | 23.37936 | 114.09554 | 28042 ft | 505 kts | 36° |
| 2026-05-06 17:54 | 23.40673 | 114.11953 | 28421 ft | 507 kts | 36° |
| 2026-05-06 17:55 | 23.43450 | 114.14355 | 28810 ft | 510 kts | 35° |
| 2026-05-06 17:55 | 23.46236 | 114.16746 | 29147 ft | 512 kts | 35° |
| 2026-05-06 17:55 | 23.49050 | 114.19151 | 29496 ft | 515 kts | 35° |
| 2026-05-06 17:55 | 23.51875 | 114.21563 | 29874 ft | 516 kts | 35° |
| 2026-05-06 17:56 | 23.53743 | 114.23161 | 30167 ft | 515 kts | 35° |
| 2026-05-06 17:56 | 23.57493 | 114.26372 | 30806 ft | 512 kts | 34° |
| 2026-05-06 17:56 | 23.59344 | 114.27958 | 31119 ft | 511 kts | 34° |
| 2026-05-06 17:56 | 23.62142 | 114.30357 | 31572 ft | 509 kts | 34° |
| 2026-05-06 17:57 | 23.64925 | 114.32744 | 31993 ft | 508 kts | 34° |
| 2026-05-06 17:57 | 23.67720 | 114.35096 | 32424 ft | 507 kts | 33° |
| 2026-05-06 17:57 | 23.70536 | 114.37408 | 32870 ft | 506 kts | 33° |
| 2026-05-06 17:57 | 23.73367 | 114.39709 | 32976 ft | 510 kts | 33° |
| 2026-05-06 17:58 | 23.79104 | 114.44374 | 32976 ft | 519 kts | 33° |
| 2026-05-06 17:58 | 23.84916 | 114.49135 | 32976 ft | 525 kts | 33° |
| 2026-05-06 17:59 | 23.90751 | 114.53938 | 32975 ft | 526 kts | 33° |
| 2026-05-06 17:59 | 23.96598 | 114.58759 | 32968 ft | 526 kts | 33° |
| 2026-05-06 18:00 | 24.02430 | 114.63570 | 32962 ft | 525 kts | 33° |
| 2026-05-06 18:00 | 24.08252 | 114.68378 | 32973 ft | 524 kts | 33° |
| 2026-05-06 18:01 | 24.14073 | 114.73189 | 32967 ft | 524 kts | 33° |
| 2026-05-06 18:01 | 24.19885 | 114.77997 | 32966 ft | 523 kts | 33° |
| 2026-05-06 18:02 | 24.25757 | 114.82671 | 32964 ft | 520 kts | 27° |
| 2026-05-06 18:02 | 24.32274 | 114.85943 | 32970 ft | 512 kts | 14° |
| 2026-05-06 18:03 | 24.39148 | 114.87749 | 32969 ft | 508 kts | 7° |
| 2026-05-06 18:03 | 24.46017 | 114.89369 | 32970 ft | 509 kts | 8° |
| 2026-05-06 18:04 | 24.52982 | 114.91092 | 32969 ft | 510 kts | 8° |
| 2026-05-06 18:04 | 24.59908 | 114.92812 | 32971 ft | 510 kts | 8° |
| 2026-05-06 18:05 | 24.66794 | 114.94516 | 32963 ft | 511 kts | 8° |
| 2026-05-06 18:05 | 24.73768 | 114.96245 | 32974 ft | 511 kts | 8° |
| 2026-05-06 18:06 | 24.80667 | 114.97945 | 32962 ft | 511 kts | 8° |
| 2026-05-06 18:06 | 24.87599 | 114.99627 | 32950 ft | 511 kts | 8° |
| 2026-05-06 18:07 | 24.94533 | 115.01311 | 32956 ft | 510 kts | 8° |
| 2026-05-06 18:07 | 25.01476 | 115.03003 | 32953 ft | 510 kts | 8° |
| 2026-05-06 18:08 | 25.08407 | 115.04696 | 32943 ft | 510 kts | 8° |
| 2026-05-06 18:08 | 25.15336 | 115.06390 | 32949 ft | 510 kts | 8° |
| 2026-05-06 18:09 | 25.22270 | 115.08087 | 32947 ft | 511 kts | 8° |
| 2026-05-06 18:09 | 25.29218 | 115.09784 | 32943 ft | 508 kts | 7° |
| 2026-05-06 18:10 | 25.32695 | 115.10239 | 32937 ft | 501 kts | 355° |
| 2026-05-06 18:10 | 25.36138 | 115.09896 | 32953 ft | 494 kts | 345° |
| 2026-05-06 18:10 | 25.42502 | 115.07388 | 32955 ft | 483 kts | 329° |
| 2026-05-06 18:11 | 25.48580 | 115.04122 | 32940 ft | 487 kts | 331° |
| 2026-05-06 18:11 | 25.54739 | 115.00944 | 32938 ft | 490 kts | 331° |
| 2026-05-06 18:12 | 25.60941 | 114.97762 | 32933 ft | 491 kts | 331° |
| 2026-05-06 18:12 | 25.67136 | 114.94572 | 32930 ft | 491 kts | 331° |
| 2026-05-06 18:13 | 25.73342 | 114.91439 | 32913 ft | 489 kts | 336° |
| 2026-05-06 18:13 | 25.76686 | 114.90636 | 32928 ft | 500 kts | 353° |
| 2026-05-06 18:13 | 25.80185 | 114.90954 | 32929 ft | 512 kts | 9° |
| 2026-05-06 18:14 | 25.83543 | 114.92224 | 32928 ft | 522 kts | 20° |
| 2026-05-06 18:14 | 25.86707 | 114.94262 | 32908 ft | 531 kts | 34° |
| 2026-05-06 18:14 | 25.91869 | 115.00178 | 32925 ft | 536 kts | 45° |
| 2026-05-06 18:15 | 25.96852 | 115.06373 | 32931 ft | 539 kts | 44° |
| 2026-05-06 18:15 | 26.01924 | 115.12529 | 32931 ft | 540 kts | 43° |
| 2026-05-06 18:16 | 26.07050 | 115.18638 | 32926 ft | 541 kts | 43° |
| 2026-05-06 18:16 | 26.12195 | 115.24751 | 32916 ft | 540 kts | 43° |
| 2026-05-06 18:17 | 26.17312 | 115.30850 | 32924 ft | 539 kts | 43° |
| 2026-05-06 18:17 | 26.22419 | 115.36955 | 32921 ft | 538 kts | 43° |
| 2026-05-06 18:18 | 26.27513 | 115.43055 | 32924 ft | 537 kts | 43° |
| 2026-05-06 18:18 | 26.32601 | 115.49154 | 32917 ft | 537 kts | 43° |
| 2026-05-06 18:19 | 26.37673 | 115.55243 | 32932 ft | 536 kts | 43° |
| 2026-05-06 18:19 | 26.42751 | 115.61345 | 32920 ft | 536 kts | 43° |
| 2026-05-06 18:20 | 26.47828 | 115.67451 | 32928 ft | 536 kts | 43° |
| 2026-05-06 18:20 | 26.52896 | 115.73566 | 32917 ft | 537 kts | 43° |
| 2026-05-06 18:21 | 26.57969 | 115.79691 | 32924 ft | 537 kts | 43° |
| 2026-05-06 18:21 | 26.63047 | 115.85827 | 32931 ft | 538 kts | 43° |
| 2026-05-06 18:22 | 26.68130 | 115.91978 | 32932 ft | 539 kts | 43° |
| 2026-05-06 18:22 | 26.73210 | 115.98137 | 32928 ft | 539 kts | 43° |
| 2026-05-06 18:23 | 26.78293 | 116.04309 | 32929 ft | 539 kts | 43° |
| 2026-05-06 18:23 | 26.83368 | 116.10478 | 32924 ft | 539 kts | 44° |
| 2026-05-06 18:24 | 26.88446 | 116.16660 | 32922 ft | 538 kts | 44° |
| 2026-05-06 18:24 | 26.93506 | 116.22823 | 32932 ft | 537 kts | 43° |
| 2026-05-06 18:25 | 26.98602 | 116.28963 | 32924 ft | 538 kts | 43° |
| 2026-05-06 18:25 | 27.03700 | 116.35098 | 32923 ft | 537 kts | 43° |
| 2026-05-06 18:26 | 27.08787 | 116.41239 | 32919 ft | 537 kts | 43° |
| 2026-05-06 18:26 | 27.13869 | 116.47390 | 32917 ft | 538 kts | 43° |
| 2026-05-06 18:27 | 27.18956 | 116.53555 | 32920 ft | 538 kts | 43° |
| 2026-05-06 18:27 | 27.24077 | 116.59686 | 32918 ft | 538 kts | 42° |
| 2026-05-06 18:28 | 27.29289 | 116.65711 | 32928 ft | 538 kts | 42° |
| 2026-05-06 18:28 | 27.34478 | 116.71717 | 32918 ft | 539 kts | 42° |
| 2026-05-06 18:29 | 27.39713 | 116.77823 | 32913 ft | 539 kts | 42° |
| 2026-05-06 18:29 | 27.44913 | 116.83907 | 32921 ft | 539 kts | 42° |
| 2026-05-06 18:30 | 27.50082 | 116.89960 | 32915 ft | 540 kts | 42° |
| 2026-05-06 18:30 | 27.55299 | 116.96047 | 32920 ft | 540 kts | 42° |
| 2026-05-06 18:31 | 27.60552 | 117.02105 | 32926 ft | 540 kts | 41° |
| 2026-05-06 18:31 | 27.65802 | 117.08166 | 32930 ft | 541 kts | 41° |
| 2026-05-06 18:32 | 27.71052 | 117.14245 | 32929 ft | 541 kts | 42° |
| 2026-05-06 18:32 | 27.76290 | 117.20328 | 32942 ft | 540 kts | 42° |
| 2026-05-06 18:33 | 27.81527 | 117.26423 | 32944 ft | 540 kts | 42° |
| 2026-05-06 18:33 | 27.86764 | 117.32521 | 32935 ft | 540 kts | 42° |
| 2026-05-06 18:34 | 27.91984 | 117.38604 | 32943 ft | 540 kts | 42° |
| 2026-05-06 18:34 | 27.97212 | 117.44705 | 32944 ft | 541 kts | 42° |
| 2026-05-06 18:35 | 28.02442 | 117.50825 | 32929 ft | 540 kts | 42° |
| 2026-05-06 18:35 | 28.07663 | 117.56945 | 32937 ft | 541 kts | 42° |
| 2026-05-06 18:36 | 28.12856 | 117.63033 | 32925 ft | 542 kts | 42° |
| 2026-05-06 18:36 | 28.18131 | 117.69229 | 32930 ft | 543 kts | 42° |
| 2026-05-06 18:37 | 28.22493 | 117.74363 | 32928 ft | 544 kts | 42° |
| 2026-05-06 18:37 | 28.28594 | 117.81552 | 32911 ft | 544 kts | 42° |